1.400 kWh

EHAM AMSTERDAM/SCHIPHOL NLD -3 m.
METAR EHAM 201125Z 21012KT 190V250 9999 FEW016 21/18 Q1009 NOSIG

EHAM AMSTERDAM/SCHIPHOL NLD -3 m.
TAF EHAM 201055Z 2012/2118 21012KT 9999 SCT025 BKN045
BECMG 2012/2015 24014KT
TEMPO 2012/2016 6000 SHRA SCT030CB BKN040
PROB30 TEMPO 2012/2015 24018G28KT 3000 TSRA BKN018 SCT025CB
BECMG 2023/2102 27010KT
PROB30 TEMPO 2023/2102 7000 -RA BKN014